createdAt,value
2022-08-22T00:02:06.091Z,67.95
2022-08-22T00:02:45.270Z,53.85
2022-08-22T00:03:11.174Z,57.70
2022-08-22T00:03:11.472Z,57.97
2022-08-22T00:04:53.082Z,68.37
2022-08-22T00:08:02.321Z,68.66
2022-08-22T00:10:45.154Z,68.57
2022-08-22T00:13:45.412Z,68.85
2022-08-22T00:16:33.410Z,69.07
2022-08-22T00:19:02.763Z,70.68
2022-08-22T00:21:36.256Z,71.29
2022-08-22T00:24:13.505Z,71.30
2022-08-22T00:27:04.453Z,70.77
2022-08-22T00:29:45.704Z,71.41
2022-08-22T00:32:20.629Z,71.75
2022-08-22T00:35:07.744Z,72.20
2022-08-22T00:37:43.906Z,71.45
2022-08-22T00:40:36.343Z,71.91
2022-08-22T00:43:43.654Z,71.44
2022-08-22T00:46:19.257Z,72.07
2022-08-22T00:49:01.040Z,72.86
2022-08-22T00:52:01.612Z,72.95
2022-08-22T00:54:47.468Z,73.55
2022-08-22T00:57:30.633Z,73.42
2022-08-22T01:00:14.159Z,73.84
2022-08-22T01:02:50.497Z,74.61
2022-08-22T01:05:46.764Z,74.57
2022-08-22T01:08:35.205Z,75.03
2022-08-22T01:11:38.782Z,74.43
2022-08-22T01:14:49.254Z,75.43
2022-08-22T01:17:56.235Z,75.60
2022-08-22T01:20:28.624Z,75.54
2022-08-22T01:23:32.546Z,75.76
2022-08-22T01:26:19.061Z,76.16
2022-08-22T01:29:04.784Z,75.57
2022-08-22T01:32:24.618Z,75.62
2022-08-22T01:34:54.196Z,75.70
2022-08-22T01:37:33.043Z,76.29
2022-08-22T01:40:24.039Z,76.31
2022-08-22T01:43:51.330Z,77.45
2022-08-22T01:46:25.481Z,78.44
2022-08-22T01:49:14.840Z,78.96
2022-08-22T01:51:53.431Z,78.65
2022-08-22T01:54:45.265Z,78.98
2022-08-22T01:57:12.849Z,80.02
2022-08-22T01:59:48.702Z,80.67
2022-08-22T02:02:20.961Z,80.21
2022-08-22T02:05:05.719Z,78.97
2022-08-22T02:07:47.393Z,78.50
2022-08-22T02:10:25.050Z,79.47
2022-08-22T02:13:33.158Z,79.00
2022-08-22T02:16:12.253Z,79.36
2022-08-22T02:19:03.700Z,78.92
2022-08-22T02:21:49.381Z,79.76
2022-08-22T02:24:44.917Z,80.63
2022-08-22T02:27:31.558Z,80.93
2022-08-22T02:30:10.503Z,81.41
2022-08-22T02:32:40.149Z,81.69
2022-08-22T02:35:18.238Z,82.03
2022-08-22T02:38:16.060Z,82.11
2022-08-22T02:41:12.765Z,81.65
2022-08-22T02:43:46.670Z,80.13
2022-08-22T02:46:25.688Z,81.00
2022-08-22T02:49:21.132Z,80.81
2022-08-22T02:52:03.163Z,80.87
2022-08-22T02:54:48.574Z,81.13
2022-08-22T02:57:39.687Z,80.98
2022-08-22T03:00:31.369Z,80.85
2022-08-22T03:02:59.390Z,81.12
2022-08-22T03:05:37.821Z,80.49
2022-08-22T03:08:47.425Z,80.78
2022-08-22T03:11:32.048Z,80.79
2022-08-22T03:14:31.034Z,81.00
2022-08-22T03:17:31.679Z,81.12
2022-08-22T03:20:14.999Z,80.45
2022-08-22T03:22:57.514Z,81.11
2022-08-22T03:25:34.008Z,81.43
2022-08-22T03:28:10.157Z,82.37
2022-08-22T03:31:21.163Z,82.83
2022-08-22T03:34:27.225Z,82.16
2022-08-22T03:37:14.721Z,81.74
2022-08-22T03:39:41.162Z,82.48
2022-08-22T03:42:17.908Z,82.24
2022-08-22T03:45:03.084Z,82.61
2022-08-22T03:47:33.812Z,82.65
2022-08-22T03:50:19.285Z,82.63
2022-08-22T03:53:24.945Z,81.85
2022-08-22T03:56:13.411Z,82.02
2022-08-22T03:58:46.199Z,81.54
2022-08-22T04:01:57.952Z,82.24
2022-08-22T04:04:31.786Z,82.46
2022-08-22T04:07:28.440Z,82.23
2022-08-22T04:10:17.338Z,82.52
2022-08-22T04:13:16.385Z,82.23
2022-08-22T04:15:58.086Z,82.45
2022-08-22T04:19:12.624Z,83.06
2022-08-22T04:21:48.225Z,83.65
2022-08-22T04:24:33.973Z,83.07
2022-08-22T04:27:17.346Z,83.22
2022-08-22T04:29:52.492Z,83.63
2022-08-22T04:32:36.405Z,83.63
2022-08-22T04:35:45.988Z,82.56
2022-08-22T04:38:27.113Z,81.46
2022-08-22T04:41:17.061Z,81.96
2022-08-22T04:44:00.928Z,82.09
2022-08-22T04:46:41.722Z,81.76
2022-08-22T04:49:24.830Z,81.13
2022-08-22T04:52:09.342Z,81.88
2022-08-22T04:54:54.678Z,81.56
2022-08-22T04:57:48.301Z,82.04
2022-08-22T05:00:16.298Z,82.00
2022-08-22T05:02:50.194Z,82.41
2022-08-22T05:05:24.254Z,82.12
2022-08-22T05:07:58.139Z,81.93
2022-08-22T05:10:38.305Z,81.76
2022-08-22T05:13:13.033Z,81.20
2022-08-22T05:15:46.025Z,80.90
2022-08-22T05:18:24.258Z,80.47
2022-08-22T05:20:59.314Z,80.71
2022-08-22T05:23:34.569Z,79.22
2022-08-22T05:26:03.567Z,79.40
2022-08-22T05:28:36.007Z,79.41
2022-08-22T05:31:08.442Z,79.01
2022-08-22T05:33:50.905Z,79.32
2022-08-22T05:36:27.432Z,79.44
2022-08-22T05:39:02.604Z,79.51
2022-08-22T05:41:35.672Z,79.29
2022-08-22T05:44:03.466Z,78.65
2022-08-22T05:46:35.981Z,78.29
2022-08-22T05:49:05.742Z,78.63
2022-08-22T05:51:48.777Z,78.71
2022-08-22T05:54:20.216Z,78.10
2022-08-22T05:56:57.777Z,77.85
2022-08-22T05:59:26.495Z,77.73
2022-08-22T06:02:12.505Z,77.63
2022-08-22T06:04:55.824Z,77.89
2022-08-22T06:07:27.706Z,77.37
2022-08-22T06:10:29.716Z,76.85
2022-08-22T06:13:12.107Z,76.40
2022-08-22T06:15:51.886Z,75.98
2022-08-22T06:18:26.227Z,76.03
2022-08-22T06:20:56.879Z,75.56
2022-08-22T06:23:36.277Z,74.66
2022-08-22T06:26:05.435Z,74.58
2022-08-22T06:28:38.141Z,74.43
2022-08-22T06:33:45.744Z,74.44
2022-08-22T06:36:31.358Z,74.43
2022-08-22T06:39:03.939Z,74.15
2022-08-22T06:41:33.173Z,73.84
2022-08-22T06:44:01.537Z,73.79
2022-08-22T06:46:30.924Z,72.65
2022-08-22T06:49:00.372Z,72.49
2022-08-22T06:51:28.365Z,72.08
2022-08-22T06:54:00.967Z,71.60
2022-08-22T06:56:34.973Z,70.47
2022-08-22T06:59:07.814Z,69.44
2022-08-22T07:01:39.178Z,68.93
2022-08-22T07:04:08.930Z,69.61
2022-08-22T07:06:41.298Z,69.49
2022-08-22T07:09:18.926Z,69.86
2022-08-22T07:11:45.909Z,70.16
2022-08-22T07:14:16.900Z,70.37
2022-08-22T07:17:05.266Z,69.24
2022-08-22T07:19:38.389Z,68.96
2022-08-22T07:22:33.083Z,67.85
2022-08-22T07:25:20.295Z,68.20
2022-08-22T07:27:52.659Z,67.70
2022-08-22T07:30:27.679Z,67.14
2022-08-22T07:33:26.584Z,66.43
2022-08-22T07:35:59.090Z,66.47
2022-08-22T07:38:43.823Z,65.53
2022-08-22T07:41:22.519Z,64.73
2022-08-22T07:44:07.547Z,62.65
2022-08-22T07:47:00.664Z,62.52
2022-08-22T07:49:34.432Z,64.01
2022-08-22T07:52:07.495Z,62.44
2022-08-22T07:55:08.159Z,61.03
2022-08-22T07:57:41.344Z,60.74
2022-08-22T08:00:20.206Z,59.82
2022-08-22T08:02:51.103Z,59.38
2022-08-22T08:05:20.077Z,58.05
2022-08-22T08:07:47.957Z,57.69
2022-08-22T08:10:24.135Z,58.40
2022-08-22T08:13:02.592Z,57.94
2022-08-22T08:15:32.099Z,56.49
2022-08-22T08:18:03.867Z,56.13
2022-08-22T08:20:31.836Z,55.85
2022-08-22T08:22:59.426Z,56.63
2022-08-22T08:25:29.003Z,54.94
2022-08-22T08:28:16.486Z,53.30
2022-08-22T08:30:53.052Z,52.63
2022-08-22T08:33:26.316Z,48.95
2022-08-22T08:36:04.022Z,44.34
2022-08-22T08:38:46.836Z,44.62
2022-08-22T08:41:41.047Z,45.19
2022-08-22T08:45:09.072Z,45.81
2022-08-22T08:48:02.882Z,47.13
2022-08-22T08:50:36.515Z,47.43
2022-08-22T08:53:33.887Z,48.76
2022-08-22T08:56:37.548Z,48.94
2022-08-22T08:59:22.756Z,47.51
2022-08-22T09:02:20.492Z,45.04
2022-08-22T09:05:24.525Z,43.92
2022-08-22T09:07:54.262Z,45.03
2022-08-22T09:10:39.942Z,43.58
2022-08-22T09:13:21.950Z,45.80
2022-08-22T09:16:10.380Z,47.20
2022-08-22T09:19:14.837Z,45.18
2022-08-22T09:22:17.394Z,44.94
2022-08-22T09:24:51.833Z,45.20
2022-08-22T09:27:31.339Z,48.12
2022-08-22T09:30:19.589Z,46.27
2022-08-22T09:32:55.692Z,44.35
2022-08-22T09:35:22.523Z,44.93
2022-08-22T09:38:07.398Z,46.09
2022-08-22T09:40:45.020Z,45.21
2022-08-22T09:43:19.838Z,45.98
2022-08-22T09:45:48.789Z,45.23
2022-08-22T09:48:35.388Z,43.36
2022-08-22T09:51:31.700Z,41.42
2022-08-22T09:54:18.780Z,42.34
2022-08-22T09:57:03.777Z,41.10
2022-08-22T09:59:54.881Z,40.64
2022-08-22T10:02:24.748Z,42.27
2022-08-22T10:05:04.553Z,40.64
2022-08-22T10:07:46.837Z,40.99
2022-08-22T10:10:37.530Z,39.99
2022-08-22T10:13:10.440Z,40.61
2022-08-22T10:15:54.977Z,40.07
2022-08-22T10:18:36.119Z,41.68
2022-08-22T10:21:14.424Z,41.07
2022-08-22T10:23:48.988Z,40.84
2022-08-22T10:26:26.063Z,41.02
2022-08-22T10:29:34.803Z,41.48
2022-08-22T10:32:19.956Z,41.25
2022-08-22T10:34:58.106Z,39.38
2022-08-22T10:37:36.588Z,38.09
2022-08-22T10:40:25.587Z,38.23
2022-08-22T10:43:21.265Z,41.12
2022-08-22T10:46:07.032Z,40.28
2022-08-22T10:48:50.390Z,40.30
2022-08-22T10:51:46.753Z,40.31
2022-08-22T10:54:37.402Z,39.36
2022-08-22T10:57:22.713Z,38.17
2022-08-22T11:00:02.921Z,37.46
2022-08-22T11:02:53.064Z,36.39
2022-08-22T11:05:41.496Z,35.39
2022-08-22T11:08:34.739Z,35.45
2022-08-22T11:11:23.662Z,36.30
2022-08-22T11:14:16.445Z,37.42
2022-08-22T11:17:11.956Z,38.24
2022-08-22T11:20:12.378Z,36.79
2022-08-22T11:22:48.746Z,37.06
2022-08-22T11:25:29.299Z,37.74
2022-08-22T11:28:28.826Z,36.77
2022-08-22T11:31:37.290Z,36.88
2022-08-22T11:34:33.073Z,36.25
2022-08-22T11:37:19.829Z,36.74
2022-08-22T11:40:19.054Z,36.93
2022-08-22T11:42:49.831Z,36.86
2022-08-22T11:45:31.351Z,36.84
2022-08-22T11:48:16.641Z,36.47
2022-08-22T11:50:49.779Z,34.94
2022-08-22T11:53:36.132Z,35.78
2022-08-22T11:56:24.739Z,34.52
2022-08-22T11:59:20.412Z,34.35
2022-08-22T12:02:00.201Z,35.02
2022-08-22T12:04:32.558Z,36.37
2022-08-22T12:07:12.671Z,36.26
2022-08-22T12:09:56.157Z,36.13
2022-08-22T12:12:50.168Z,36.87
2022-08-22T12:15:24.642Z,35.75
2022-08-22T12:18:21.240Z,35.09
2022-08-22T12:21:14.047Z,35.08
2022-08-22T12:24:06.154Z,35.89
2022-08-22T12:26:56.018Z,35.32
2022-08-22T12:29:33.564Z,36.21
2022-08-22T12:32:37.969Z,35.28
2022-08-22T12:35:30.329Z,35.98
2022-08-22T12:38:28.486Z,36.16
2022-08-22T12:41:09.840Z,35.01
2022-08-22T12:43:56.844Z,34.45
2022-08-22T12:46:37.905Z,35.01
2022-08-22T12:49:29.276Z,35.18
2022-08-22T12:52:13.653Z,36.53
2022-08-22T12:54:55.655Z,36.42
2022-08-22T12:57:44.618Z,36.22
2022-08-22T13:00:32.032Z,36.08
2022-08-22T13:03:04.662Z,36.46
2022-08-22T13:05:40.376Z,36.67
2022-08-22T13:08:33.491Z,37.00
2022-08-22T13:11:12.398Z,37.13
2022-08-22T13:13:56.717Z,36.97
2022-08-22T13:16:26.237Z,36.99
2022-08-22T13:19:13.783Z,37.03
2022-08-22T13:21:48.253Z,36.15
2022-08-22T13:24:22.670Z,36.66
2022-08-22T13:27:11.650Z,36.79
2022-08-22T13:29:53.392Z,36.35
2022-08-22T13:32:30.908Z,36.90
2022-08-22T13:35:00.199Z,37.59
2022-08-22T13:37:50.139Z,37.17
2022-08-22T13:40:29.524Z,36.96
2022-08-22T13:43:22.470Z,37.07
2022-08-22T13:45:54.464Z,37.20
2022-08-22T13:48:28.577Z,37.38
2022-08-22T13:51:22.420Z,37.33
2022-08-22T13:54:03.058Z,37.44
2022-08-22T13:57:10.989Z,37.47
2022-08-22T14:00:05.255Z,37.33
2022-08-22T14:02:49.767Z,36.77
2022-08-22T14:05:40.158Z,36.93
2022-08-22T14:08:18.700Z,36.00
2022-08-22T14:11:20.635Z,34.96
2022-08-22T14:13:57.168Z,34.29
2022-08-22T14:16:33.002Z,33.56
2022-08-22T14:19:07.315Z,33.47
2022-08-22T14:21:40.816Z,34.49
2022-08-22T14:24:55.532Z,34.72
2022-08-22T14:27:35.027Z,34.67
2022-08-22T14:30:07.534Z,35.56
2022-08-22T14:32:49.453Z,35.22
2022-08-22T14:35:35.180Z,35.54
2022-08-22T14:38:30.093Z,35.76
2022-08-22T14:41:06.958Z,35.78
2022-08-22T14:44:03.886Z,35.82
2022-08-22T14:46:51.246Z,35.51
2022-08-22T14:49:35.404Z,35.45
2022-08-22T14:52:08.930Z,35.73
2022-08-22T14:54:36.699Z,35.35
2022-08-22T14:57:10.404Z,35.27
2022-08-22T14:59:45.567Z,35.33
2022-08-22T15:02:28.839Z,35.24
2022-08-22T15:04:58.121Z,35.36
2022-08-22T15:07:32.435Z,35.30
2022-08-22T15:10:06.167Z,35.92
2022-08-22T15:12:37.769Z,35.75
2022-08-22T15:15:27.411Z,35.44
2022-08-22T15:17:54.201Z,35.29
2022-08-22T15:20:49.163Z,35.18
2022-08-22T15:23:23.280Z,36.02
2022-08-22T15:26:03.615Z,35.96
2022-08-22T15:28:35.951Z,36.22
2022-08-22T15:31:19.714Z,35.80
2022-08-22T15:33:46.969Z,36.10
2022-08-22T15:36:26.122Z,34.83
2022-08-22T15:38:55.274Z,35.18
2022-08-22T15:41:31.347Z,35.57
2022-08-22T15:44:15.027Z,35.91
2022-08-22T15:47:11.601Z,36.01
2022-08-22T15:49:52.036Z,35.76
2022-08-22T15:52:27.168Z,36.99
2022-08-22T15:54:53.628Z,36.99
2022-08-22T15:57:34.957Z,36.43
2022-08-22T16:00:17.350Z,37.84
2022-08-22T16:03:23.434Z,36.96
2022-08-22T16:05:57.054Z,37.32
2022-08-22T16:08:44.807Z,37.80
2022-08-22T16:11:33.024Z,37.89
2022-08-22T16:14:37.650Z,37.55
2022-08-22T16:17:26.682Z,37.28
2022-08-22T16:20:20.122Z,37.21
2022-08-22T16:22:56.546Z,37.36
2022-08-22T16:25:45.020Z,37.35
2022-08-22T16:28:56.896Z,37.99
2022-08-22T16:31:36.097Z,37.56
2022-08-22T16:34:17.873Z,37.87
2022-08-22T16:37:04.953Z,37.69
2022-08-22T16:39:40.342Z,37.73
2022-08-22T16:42:12.668Z,37.80
2022-08-22T16:44:43.487Z,37.81
2022-08-22T16:47:17.839Z,37.96
2022-08-22T16:49:50.269Z,38.28
2022-08-22T16:52:29.001Z,38.11
2022-08-22T16:55:07.206Z,37.28
2022-08-22T16:57:59.441Z,37.98
2022-08-22T17:00:51.207Z,38.29
2022-08-22T17:03:39.412Z,38.38
2022-08-22T17:06:47.837Z,38.36
2022-08-22T17:09:40.190Z,38.83
2022-08-22T17:12:19.934Z,38.76
2022-08-22T17:15:07.101Z,38.83
2022-08-22T17:17:36.643Z,38.50
2022-08-22T17:20:06.151Z,38.24
2022-08-22T17:22:56.598Z,38.47
2022-08-22T17:25:29.175Z,37.84
2022-08-22T17:28:25.614Z,38.37
2022-08-22T17:31:03.057Z,38.50
2022-08-22T17:33:51.541Z,38.80
2022-08-22T17:36:39.411Z,38.87
2022-08-22T17:39:26.988Z,38.83
2022-08-22T17:42:05.676Z,39.14
2022-08-22T17:44:42.484Z,39.28
2022-08-22T17:47:16.942Z,39.64
2022-08-22T17:49:45.226Z,39.80
2022-08-22T17:52:33.909Z,40.27
2022-08-22T17:58:47.830Z,41.08
2022-08-22T18:01:37.460Z,41.05
2022-08-22T18:04:09.203Z,41.34
2022-08-22T18:06:47.763Z,41.36
2022-08-22T18:09:31.286Z,41.46
2022-08-22T18:12:07.821Z,41.89
2022-08-22T18:15:05.743Z,42.21
2022-08-22T18:17:43.263Z,42.82
2022-08-22T18:20:13.214Z,43.33
2022-08-22T18:22:39.690Z,44.10
2022-08-22T18:25:19.255Z,44.39
2022-08-22T18:28:12.788Z,44.96
2022-08-22T18:30:56.352Z,45.30
2022-08-22T18:33:32.884Z,45.78
2022-08-22T18:36:12.716Z,46.38
2022-08-22T18:38:50.123Z,46.81
2022-08-22T18:41:41.039Z,47.37
2022-08-22T18:44:18.111Z,47.60
2022-08-22T18:46:56.897Z,47.89
2022-08-22T18:49:37.671Z,47.99
2022-08-22T18:52:25.164Z,48.30
2022-08-22T18:55:19.147Z,48.52
2022-08-22T18:58:19.526Z,48.75
2022-08-22T19:00:53.973Z,48.88
2022-08-22T19:03:54.620Z,49.27
2022-08-22T19:06:24.257Z,49.56
2022-08-22T19:09:21.705Z,49.74
2022-08-22T19:12:10.110Z,50.12
2022-08-22T19:15:34.321Z,50.84
2022-08-22T19:18:34.373Z,50.96
2022-08-22T19:21:50.065Z,51.27
2022-08-22T19:24:19.278Z,51.39
2022-08-22T19:27:12.360Z,51.89
2022-08-22T19:29:38.861Z,52.14
2022-08-22T19:32:12.811Z,52.32
2022-08-22T19:34:46.781Z,52.36
2022-08-22T19:37:30.801Z,52.57
2022-08-22T19:40:11.727Z,52.88
2022-08-22T19:42:40.940Z,52.92
2022-08-22T19:45:17.655Z,53.13
2022-08-22T19:47:54.800Z,53.61
2022-08-22T19:50:21.351Z,53.87
2022-08-22T19:52:50.962Z,53.93
2022-08-22T19:55:30.903Z,54.18
2022-08-22T19:58:03.983Z,54.31
2022-08-22T20:00:57.676Z,54.63
2022-08-22T20:03:34.985Z,54.59
2022-08-22T20:06:43.965Z,54.81
2022-08-22T20:10:02.145Z,54.97
2022-08-22T20:12:28.629Z,55.09
2022-08-22T20:14:56.106Z,55.36
2022-08-22T20:17:25.259Z,55.74
2022-08-22T20:22:52.923Z,56.18
2022-08-22T20:25:42.178Z,56.49
2022-08-22T20:28:33.291Z,56.29
2022-08-22T20:31:04.470Z,56.29
2022-08-22T20:33:40.888Z,56.48
2022-08-22T20:36:27.549Z,57.19
2022-08-22T20:39:16.812Z,56.97
2022-08-22T20:41:49.261Z,57.11
2022-08-22T20:44:33.235Z,56.93
2022-08-22T20:47:11.159Z,57.41
2022-08-22T20:49:44.442Z,57.13
2022-08-22T20:52:33.886Z,58.03
2022-08-22T20:55:31.850Z,57.93
2022-08-22T20:58:06.048Z,57.94
2022-08-22T21:00:42.227Z,58.40
2022-08-22T21:03:22.375Z,58.40
2022-08-22T21:05:49.263Z,58.32
2022-08-22T21:08:21.860Z,58.34
2022-08-22T21:11:23.465Z,58.38
2022-08-22T21:13:51.710Z,58.66
2022-08-22T21:16:31.624Z,58.87
2022-08-22T21:18:59.240Z,59.24
2022-08-22T21:21:29.125Z,59.48
2022-08-22T21:24:01.011Z,59.48
2022-08-22T21:26:38.452Z,59.52
2022-08-22T21:29:14.010Z,59.76
2022-08-22T21:31:54.110Z,59.92
2022-08-22T21:34:28.921Z,59.55
2022-08-22T21:37:00.742Z,59.60
2022-08-22T21:39:36.692Z,59.87
2022-08-22T21:42:03.133Z,59.56
2022-08-22T21:44:43.559Z,60.15
2022-08-22T21:47:30.644Z,59.97
2022-08-22T21:50:12.871Z,60.41
2022-08-22T21:53:01.014Z,61.50
2022-08-22T21:55:34.886Z,61.34
2022-08-22T21:58:04.737Z,60.73
2022-08-22T22:00:51.500Z,60.43
2022-08-22T22:03:22.417Z,60.60
2022-08-22T22:05:51.075Z,60.78
2022-08-22T22:08:17.892Z,60.61
2022-08-22T22:10:47.078Z,60.87
2022-08-22T22:13:13.862Z,60.82
2022-08-22T22:15:44.397Z,60.88
2022-08-22T22:18:13.471Z,61.44
2022-08-22T22:20:41.232Z,61.54
2022-08-22T22:23:07.944Z,61.75
2022-08-22T22:25:40.075Z,62.04
2022-08-22T22:28:15.858Z,62.22
2022-08-22T22:30:43.339Z,62.41
2022-08-22T22:33:10.177Z,62.94
2022-08-22T22:35:39.242Z,62.92
2022-08-22T22:38:07.717Z,63.08
2022-08-22T22:40:35.225Z,63.96
2022-08-22T22:43:01.773Z,64.09
2022-08-22T22:45:28.466Z,64.36
2022-08-22T22:47:55.057Z,64.64
2022-08-22T22:50:21.765Z,64.50
2022-08-22T22:52:48.585Z,64.42
2022-08-22T22:55:23.992Z,64.70
2022-08-22T22:57:59.187Z,65.74
2022-08-22T23:00:31.189Z,65.62
2022-08-22T23:02:59.956Z,65.24
2022-08-22T23:05:26.649Z,65.52
2022-08-22T23:07:53.199Z,66.11
2022-08-22T23:10:22.095Z,66.89
2022-08-22T23:12:48.786Z,66.29
2022-08-22T23:15:15.556Z,66.63
2022-08-22T23:17:42.647Z,67.52
2022-08-22T23:20:09.540Z,67.41
2022-08-22T23:22:36.331Z,68.09
2022-08-22T23:25:03.056Z,68.26
2022-08-22T23:27:31.449Z,68.89
2022-08-22T23:29:57.992Z,69.33
2022-08-22T23:32:24.603Z,69.32
2022-08-22T23:34:51.169Z,69.29
2022-08-22T23:37:21.105Z,69.44
2022-08-22T23:39:48.706Z,70.07
2022-08-22T23:42:16.179Z,70.17
2022-08-22T23:44:45.242Z,70.04
2022-08-22T23:47:13.037Z,70.08
2022-08-22T23:49:40.626Z,70.21
2022-08-22T23:52:07.497Z,69.88
2022-08-22T23:54:34.323Z,69.91
